sensor_id;sensor_type;location;lat;lon;timestamp;temperature;humidity
18043;DHT22;9146;48.074;11.968;2023-08-24T00:01:57;21.30;99.90
18043;DHT22;9146;48.074;11.968;2023-08-24T00:04:25;21.30;99.90
18043;DHT22;9146;48.074;11.968;2023-08-24T00:06:52;21.30;99.90
18043;DHT22;9146;48.074;11.968;2023-08-24T00:09:20;21.30;99.90
18043;DHT22;9146;48.074;11.968;2023-08-24T00:11:47;21.30;99.90
18043;DHT22;9146;48.074;11.968;2023-08-24T00:14:14;21.30;99.90
18043;DHT22;9146;48.074;11.968;2023-08-24T00:16:41;21.30;99.90
18043;DHT22;9146;48.074;11.968;2023-08-24T00:19:09;21.30;99.90
18043;DHT22;9146;48.074;11.968;2023-08-24T00:21:37;21.30;99.90
18043;DHT22;9146;48.074;11.968;2023-08-24T00:24:05;21.30;99.90
18043;DHT22;9146;48.074;11.968;2023-08-24T00:26:32;21.30;99.90
18043;DHT22;9146;48.074;11.968;2023-08-24T00:28:59;21.20;99.90
18043;DHT22;9146;48.074;11.968;2023-08-24T00:31:26;21.20;99.90
18043;DHT22;9146;48.074;11.968;2023-08-24T00:33:53;21.20;99.90
18043;DHT22;9146;48.074;11.968;2023-08-24T00:36:20;21.10;99.90
18043;DHT22;9146;48.074;11.968;2023-08-24T00:38:50;21.00;99.90
18043;DHT22;9146;48.074;11.968;2023-08-24T00:41:18;21.00;99.90
18043;DHT22;9146;48.074;11.968;2023-08-24T00:43:46;20.90;99.90
18043;DHT22;9146;48.074;11.968;2023-08-24T00:46:15;20.80;99.90
18043;DHT22;9146;48.074;11.968;2023-08-24T00:48:43;20.80;99.90
18043;DHT22;9146;48.074;11.968;2023-08-24T00:51:10;20.80;99.90
18043;DHT22;9146;48.074;11.968;2023-08-24T00:53:37;20.70;99.90
18043;DHT22;9146;48.074;11.968;2023-08-24T00:56:05;20.70;99.90
18043;DHT22;9146;48.074;11.968;2023-08-24T00:58:33;20.70;99.90
18043;DHT22;9146;48.074;11.968;2023-08-24T01:01:01;20.70;99.90
18043;DHT22;9146;48.074;11.968;2023-08-24T01:03:28;20.70;99.90
18043;DHT22;9146;48.074;11.968;2023-08-24T01:05:55;20.80;99.90
18043;DHT22;9146;48.074;11.968;2023-08-24T01:08:23;20.80;99.90
18043;DHT22;9146;48.074;11.968;2023-08-24T01:10:57;20.80;99.90
18043;DHT22;9146;48.074;11.968;2023-08-24T01:13:33;20.80;99.90
18043;DHT22;9146;48.074;11.968;2023-08-24T01:16:08;20.90;99.90
18043;DHT22;9146;48.074;11.968;2023-08-24T01:18:38;20.90;99.90
18043;DHT22;9146;48.074;11.968;2023-08-24T01:21:06;20.90;99.90
18043;DHT22;9146;48.074;11.968;2023-08-24T01:23:39;20.90;99.90
18043;DHT22;9146;48.074;11.968;2023-08-24T01:26:12;20.80;99.90
18043;DHT22;9146;48.074;11.968;2023-08-24T01:28:41;20.80;99.90
18043;DHT22;9146;48.074;11.968;2023-08-24T01:31:10;20.80;99.90
18043;DHT22;9146;48.074;11.968;2023-08-24T01:33:39;20.80;99.90
18043;DHT22;9146;48.074;11.968;2023-08-24T01:36:08;20.80;99.90
18043;DHT22;9146;48.074;11.968;2023-08-24T01:38:35;20.80;99.90
18043;DHT22;9146;48.074;11.968;2023-08-24T01:41:09;20.80;99.90
18043;DHT22;9146;48.074;11.968;2023-08-24T01:43:40;20.80;99.90
18043;DHT22;9146;48.074;11.968;2023-08-24T01:46:11;20.80;99.90
18043;DHT22;9146;48.074;11.968;2023-08-24T01:48:41;20.80;99.90
18043;DHT22;9146;48.074;11.968;2023-08-24T01:51:09;20.80;99.90
18043;DHT22;9146;48.074;11.968;2023-08-24T01:53:37;20.70;99.90
18043;DHT22;9146;48.074;11.968;2023-08-24T01:56:08;20.70;99.90
18043;DHT22;9146;48.074;11.968;2023-08-24T01:58:35;20.70;99.90
18043;DHT22;9146;48.074;11.968;2023-08-24T02:01:04;20.60;99.90
18043;DHT22;9146;48.074;11.968;2023-08-24T02:03:31;20.60;99.90
18043;DHT22;9146;48.074;11.968;2023-08-24T02:05:58;20.60;99.90
18043;DHT22;9146;48.074;11.968;2023-08-24T02:08:25;20.60;99.90
18043;DHT22;9146;48.074;11.968;2023-08-24T02:10:52;20.70;99.90
18043;DHT22;9146;48.074;11.968;2023-08-24T02:13:19;20.70;99.90
18043;DHT22;9146;48.074;11.968;2023-08-24T02:15:46;20.70;99.90
18043;DHT22;9146;48.074;11.968;2023-08-24T02:18:15;20.60;99.90
18043;DHT22;9146;48.074;11.968;2023-08-24T02:20:42;20.60;99.90
18043;DHT22;9146;48.074;11.968;2023-08-24T02:23:09;20.60;99.90
18043;DHT22;9146;48.074;11.968;2023-08-24T02:25:42;20.50;99.90
18043;DHT22;9146;48.074;11.968;2023-08-24T02:28:09;20.50;99.90
18043;DHT22;9146;48.074;11.968;2023-08-24T02:30:37;20.40;99.90
18043;DHT22;9146;48.074;11.968;2023-08-24T02:33:04;20.40;99.90
18043;DHT22;9146;48.074;11.968;2023-08-24T02:35:32;20.40;99.90
18043;DHT22;9146;48.074;11.968;2023-08-24T02:38:00;20.30;99.90
18043;DHT22;9146;48.074;11.968;2023-08-24T02:40:28;20.30;99.90
18043;DHT22;9146;48.074;11.968;2023-08-24T02:42:55;20.20;99.90
18043;DHT22;9146;48.074;11.968;2023-08-24T02:45:22;20.20;99.90
18043;DHT22;9146;48.074;11.968;2023-08-24T02:47:49;20.10;99.90
18043;DHT22;9146;48.074;11.968;2023-08-24T02:50:16;20.10;99.90
18043;DHT22;9146;48.074;11.968;2023-08-24T02:52:46;20.00;99.90
18043;DHT22;9146;48.074;11.968;2023-08-24T02:55:13;20.00;99.90
18043;DHT22;9146;48.074;11.968;2023-08-24T02:57:40;19.90;99.90
18043;DHT22;9146;48.074;11.968;2023-08-24T03:00:08;19.90;99.90
18043;DHT22;9146;48.074;11.968;2023-08-24T03:02:39;19.90;99.90
18043;DHT22;9146;48.074;11.968;2023-08-24T03:05:06;19.80;99.90
18043;DHT22;9146;48.074;11.968;2023-08-24T03:07:33;19.80;99.90
18043;DHT22;9146;48.074;11.968;2023-08-24T03:10:02;19.70;99.90
18043;DHT22;9146;48.074;11.968;2023-08-24T03:12:29;19.70;99.90
18043;DHT22;9146;48.074;11.968;2023-08-24T03:14:56;19.60;99.90
18043;DHT22;9146;48.074;11.968;2023-08-24T03:17:23;19.60;99.90
18043;DHT22;9146;48.074;11.968;2023-08-24T03:19:50;19.50;99.90
18043;DHT22;9146;48.074;11.968;2023-08-24T03:22:17;19.50;99.90
18043;DHT22;9146;48.074;11.968;2023-08-24T03:24:44;19.50;99.90
18043;DHT22;9146;48.074;11.968;2023-08-24T03:27:12;19.40;99.90
18043;DHT22;9146;48.074;11.968;2023-08-24T03:29:39;19.40;99.90
18043;DHT22;9146;48.074;11.968;2023-08-24T03:32:06;19.30;99.90
18043;DHT22;9146;48.074;11.968;2023-08-24T03:34:33;19.30;99.90
18043;DHT22;9146;48.074;11.968;2023-08-24T03:37:00;19.20;99.90
18043;DHT22;9146;48.074;11.968;2023-08-24T03:39:27;19.20;99.90
18043;DHT22;9146;48.074;11.968;2023-08-24T03:41:54;19.20;99.90
18043;DHT22;9146;48.074;11.968;2023-08-24T03:44:22;19.20;99.90
18043;DHT22;9146;48.074;11.968;2023-08-24T03:46:50;19.10;99.90
18043;DHT22;9146;48.074;11.968;2023-08-24T03:49:17;19.10;99.90
18043;DHT22;9146;48.074;11.968;2023-08-24T03:51:44;19.00;99.90
18043;DHT22;9146;48.074;11.968;2023-08-24T03:54:10;19.10;99.90
18043;DHT22;9146;48.074;11.968;2023-08-24T03:56:39;19.00;99.90
18043;DHT22;9146;48.074;11.968;2023-08-24T03:59:06;19.00;99.90
18043;DHT22;9146;48.074;11.968;2023-08-24T04:01:34;19.00;99.90
18043;DHT22;9146;48.074;11.968;2023-08-24T04:04:01;19.00;99.90
18043;DHT22;9146;48.074;11.968;2023-08-24T04:06:28;19.00;99.90
18043;DHT22;9146;48.074;11.968;2023-08-24T04:08:55;19.00;99.90
18043;DHT22;9146;48.074;11.968;2023-08-24T04:11:22;19.00;99.90
18043;DHT22;9146;48.074;11.968;2023-08-24T04:13:49;19.00;99.90
18043;DHT22;9146;48.074;11.968;2023-08-24T04:16:16;18.90;99.90
18043;DHT22;9146;48.074;11.968;2023-08-24T04:18:51;18.90;99.90
18043;DHT22;9146;48.074;11.968;2023-08-24T04:21:18;18.90;99.90
18043;DHT22;9146;48.074;11.968;2023-08-24T04:23:45;18.90;99.90
18043;DHT22;9146;48.074;11.968;2023-08-24T04:26:12;18.90;99.90
18043;DHT22;9146;48.074;11.968;2023-08-24T04:28:40;18.80;99.90
18043;DHT22;9146;48.074;11.968;2023-08-24T04:31:07;18.80;99.90
18043;DHT22;9146;48.074;11.968;2023-08-24T04:33:34;18.80;99.90
18043;DHT22;9146;48.074;11.968;2023-08-24T04:36:03;18.90;99.90
18043;DHT22;9146;48.074;11.968;2023-08-24T04:38:30;18.90;99.90
18043;DHT22;9146;48.074;11.968;2023-08-24T04:40:57;18.90;99.90
18043;DHT22;9146;48.074;11.968;2023-08-24T04:43:24;18.90;99.90
18043;DHT22;9146;48.074;11.968;2023-08-24T04:45:53;19.00;99.90
18043;DHT22;9146;48.074;11.968;2023-08-24T04:48:21;19.00;99.90
18043;DHT22;9146;48.074;11.968;2023-08-24T04:50:49;19.10;99.90
18043;DHT22;9146;48.074;11.968;2023-08-24T04:53:18;19.10;99.90
18043;DHT22;9146;48.074;11.968;2023-08-24T04:55:46;19.30;99.90
18043;DHT22;9146;48.074;11.968;2023-08-24T04:58:13;19.30;99.90
18043;DHT22;9146;48.074;11.968;2023-08-24T05:00:40;19.40;99.90
18043;DHT22;9146;48.074;11.968;2023-08-24T05:03:08;19.50;99.90
18043;DHT22;9146;48.074;11.968;2023-08-24T05:05:35;19.60;99.90
18043;DHT22;9146;48.074;11.968;2023-08-24T05:08:04;19.70;99.90
18043;DHT22;9146;48.074;11.968;2023-08-24T05:10:33;19.80;99.90
18043;DHT22;9146;48.074;11.968;2023-08-24T05:13:00;19.90;99.90
18043;DHT22;9146;48.074;11.968;2023-08-24T05:15:28;20.00;99.90
18043;DHT22;9146;48.074;11.968;2023-08-24T05:17:55;20.10;99.90
18043;DHT22;9146;48.074;11.968;2023-08-24T05:20:25;20.20;99.90
18043;DHT22;9146;48.074;11.968;2023-08-24T05:22:52;20.30;99.90
18043;DHT22;9146;48.074;11.968;2023-08-24T05:25:20;20.40;99.90
18043;DHT22;9146;48.074;11.968;2023-08-24T05:27:49;20.40;99.90
18043;DHT22;9146;48.074;11.968;2023-08-24T05:30:16;20.50;99.90
18043;DHT22;9146;48.074;11.968;2023-08-24T05:32:43;20.60;99.90
18043;DHT22;9146;48.074;11.968;2023-08-24T05:35:10;20.70;99.90
18043;DHT22;9146;48.074;11.968;2023-08-24T05:37:38;20.90;99.90
18043;DHT22;9146;48.074;11.968;2023-08-24T05:40:05;21.00;99.90
18043;DHT22;9146;48.074;11.968;2023-08-24T05:42:33;21.10;99.90
18043;DHT22;9146;48.074;11.968;2023-08-24T05:45:04;21.20;99.90
18043;DHT22;9146;48.074;11.968;2023-08-24T05:47:31;21.40;99.90
18043;DHT22;9146;48.074;11.968;2023-08-24T05:49:58;21.50;99.90
18043;DHT22;9146;48.074;11.968;2023-08-24T05:52:26;21.60;99.90
18043;DHT22;9146;48.074;11.968;2023-08-24T05:54:53;21.70;99.90
18043;DHT22;9146;48.074;11.968;2023-08-24T05:57:20;21.80;99.90
18043;DHT22;9146;48.074;11.968;2023-08-24T05:59:47;21.90;99.90
18043;DHT22;9146;48.074;11.968;2023-08-24T06:02:15;21.90;99.90
18043;DHT22;9146;48.074;11.968;2023-08-24T06:04:42;22.00;99.90
18043;DHT22;9146;48.074;11.968;2023-08-24T06:07:09;22.10;99.90
18043;DHT22;9146;48.074;11.968;2023-08-24T06:09:36;22.10;99.90
18043;DHT22;9146;48.074;11.968;2023-08-24T06:12:04;22.20;99.90
18043;DHT22;9146;48.074;11.968;2023-08-24T06:14:31;22.20;99.90
18043;DHT22;9146;48.074;11.968;2023-08-24T06:16:58;22.30;99.90
18043;DHT22;9146;48.074;11.968;2023-08-24T06:19:26;22.30;99.90
18043;DHT22;9146;48.074;11.968;2023-08-24T06:21:54;22.40;99.90
18043;DHT22;9146;48.074;11.968;2023-08-24T06:24:20;22.50;99.90
18043;DHT22;9146;48.074;11.968;2023-08-24T06:26:47;22.60;99.90
18043;DHT22;9146;48.074;11.968;2023-08-24T06:29:14;22.70;99.90
18043;DHT22;9146;48.074;11.968;2023-08-24T06:31:41;22.70;99.90
18043;DHT22;9146;48.074;11.968;2023-08-24T06:34:08;22.70;99.90
18043;DHT22;9146;48.074;11.968;2023-08-24T06:36:36;22.80;99.90
18043;DHT22;9146;48.074;11.968;2023-08-24T06:39:03;22.90;99.90
18043;DHT22;9146;48.074;11.968;2023-08-24T06:41:33;23.00;99.90
18043;DHT22;9146;48.074;11.968;2023-08-24T06:44:01;23.10;99.90
18043;DHT22;9146;48.074;11.968;2023-08-24T06:46:29;23.10;99.90
18043;DHT22;9146;48.074;11.968;2023-08-24T06:48:56;23.20;99.90
18043;DHT22;9146;48.074;11.968;2023-08-24T06:51:24;23.30;99.90
18043;DHT22;9146;48.074;11.968;2023-08-24T06:53:52;23.40;99.90
18043;DHT22;9146;48.074;11.968;2023-08-24T06:56:19;23.50;99.90
18043;DHT22;9146;48.074;11.968;2023-08-24T06:58:47;23.60;99.90
18043;DHT22;9146;48.074;11.968;2023-08-24T07:01:15;23.70;99.90
18043;DHT22;9146;48.074;11.968;2023-08-24T07:03:42;23.80;99.90
18043;DHT22;9146;48.074;11.968;2023-08-24T07:06:08;23.90;99.90
18043;DHT22;9146;48.074;11.968;2023-08-24T07:08:37;23.90;99.90
18043;DHT22;9146;48.074;11.968;2023-08-24T07:11:07;24.00;99.90
18043;DHT22;9146;48.074;11.968;2023-08-24T07:13:34;24.00;99.90
18043;DHT22;9146;48.074;11.968;2023-08-24T07:16:01;24.00;99.90
18043;DHT22;9146;48.074;11.968;2023-08-24T07:18:29;24.10;99.90
18043;DHT22;9146;48.074;11.968;2023-08-24T07:20:56;24.20;99.90
18043;DHT22;9146;48.074;11.968;2023-08-24T07:23:23;24.30;99.90
18043;DHT22;9146;48.074;11.968;2023-08-24T07:25:51;24.50;99.90
18043;DHT22;9146;48.074;11.968;2023-08-24T07:28:20;24.60;99.90
18043;DHT22;9146;48.074;11.968;2023-08-24T07:30:47;24.70;99.90
18043;DHT22;9146;48.074;11.968;2023-08-24T07:33:14;24.80;99.90
18043;DHT22;9146;48.074;11.968;2023-08-24T07:35:41;24.90;99.90
18043;DHT22;9146;48.074;11.968;2023-08-24T07:38:08;25.00;99.90
18043;DHT22;9146;48.074;11.968;2023-08-24T07:40:35;25.00;99.90
18043;DHT22;9146;48.074;11.968;2023-08-24T07:43:03;25.10;99.90
18043;DHT22;9146;48.074;11.968;2023-08-24T07:45:31;25.10;99.90
18043;DHT22;9146;48.074;11.968;2023-08-24T07:47:59;25.20;99.90
18043;DHT22;9146;48.074;11.968;2023-08-24T07:50:26;25.20;99.90
18043;DHT22;9146;48.074;11.968;2023-08-24T07:52:53;25.30;99.90
18043;DHT22;9146;48.074;11.968;2023-08-24T07:55:20;25.40;99.90
18043;DHT22;9146;48.074;11.968;2023-08-24T07:57:47;25.50;99.90
18043;DHT22;9146;48.074;11.968;2023-08-24T08:00:15;25.60;99.90
18043;DHT22;9146;48.074;11.968;2023-08-24T08:02:43;25.70;99.90
18043;DHT22;9146;48.074;11.968;2023-08-24T08:05:10;25.80;99.90
18043;DHT22;9146;48.074;11.968;2023-08-24T08:07:38;25.80;99.90
18043;DHT22;9146;48.074;11.968;2023-08-24T08:10:05;25.90;99.90
18043;DHT22;9146;48.074;11.968;2023-08-24T08:12:33;25.80;99.90
18043;DHT22;9146;48.074;11.968;2023-08-24T08:15:00;25.90;99.90
18043;DHT22;9146;48.074;11.968;2023-08-24T08:17:27;25.90;99.90
18043;DHT22;9146;48.074;11.968;2023-08-24T08:19:57;26.00;99.90
18043;DHT22;9146;48.074;11.968;2023-08-24T08:22:24;26.00;99.90
18043;DHT22;9146;48.074;11.968;2023-08-24T08:24:52;26.00;99.90
18043;DHT22;9146;48.074;11.968;2023-08-24T08:27:19;26.10;99.90
18043;DHT22;9146;48.074;11.968;2023-08-24T08:29:47;26.10;99.90
18043;DHT22;9146;48.074;11.968;2023-08-24T08:32:14;26.10;99.90
18043;DHT22;9146;48.074;11.968;2023-08-24T08:34:41;26.10;99.90
18043;DHT22;9146;48.074;11.968;2023-08-24T08:37:09;26.20;99.90
18043;DHT22;9146;48.074;11.968;2023-08-24T08:39:36;26.20;99.90
18043;DHT22;9146;48.074;11.968;2023-08-24T08:42:03;26.20;99.90
18043;DHT22;9146;48.074;11.968;2023-08-24T08:44:45;26.30;99.90
18043;DHT22;9146;48.074;11.968;2023-08-24T08:47:15;26.30;99.90
18043;DHT22;9146;48.074;11.968;2023-08-24T08:49:43;26.30;99.90
18043;DHT22;9146;48.074;11.968;2023-08-24T08:52:12;26.40;99.90
18043;DHT22;9146;48.074;11.968;2023-08-24T08:54:39;26.40;99.90
18043;DHT22;9146;48.074;11.968;2023-08-24T08:57:06;26.50;99.90
18043;DHT22;9146;48.074;11.968;2023-08-24T08:59:34;26.50;99.90
18043;DHT22;9146;48.074;11.968;2023-08-24T09:02:03;26.60;99.90
18043;DHT22;9146;48.074;11.968;2023-08-24T09:04:31;26.60;99.90
18043;DHT22;9146;48.074;11.968;2023-08-24T09:06:59;26.70;99.90
18043;DHT22;9146;48.074;11.968;2023-08-24T09:09:30;26.70;99.90
18043;DHT22;9146;48.074;11.968;2023-08-24T09:12:00;26.70;99.90
18043;DHT22;9146;48.074;11.968;2023-08-24T09:14:27;26.80;99.90
18043;DHT22;9146;48.074;11.968;2023-08-24T09:16:54;26.80;99.90
18043;DHT22;9146;48.074;11.968;2023-08-24T09:19:27;26.90;99.90
18043;DHT22;9146;48.074;11.968;2023-08-24T09:21:57;27.00;99.90
18043;DHT22;9146;48.074;11.968;2023-08-24T09:24:31;27.10;99.90
18043;DHT22;9146;48.074;11.968;2023-08-24T09:26:59;27.20;99.90
18043;DHT22;9146;48.074;11.968;2023-08-24T09:29:26;27.30;99.90
18043;DHT22;9146;48.074;11.968;2023-08-24T09:31:54;27.30;99.90
18043;DHT22;9146;48.074;11.968;2023-08-24T09:34:23;27.40;99.90
18043;DHT22;9146;48.074;11.968;2023-08-24T09:36:52;27.50;99.90
18043;DHT22;9146;48.074;11.968;2023-08-24T09:39:19;27.60;99.90
18043;DHT22;9146;48.074;11.968;2023-08-24T09:41:49;27.70;99.90
18043;DHT22;9146;48.074;11.968;2023-08-24T09:44:17;27.80;99.90
18043;DHT22;9146;48.074;11.968;2023-08-24T09:46:44;27.90;99.90
18043;DHT22;9146;48.074;11.968;2023-08-24T09:49:12;28.00;99.90
18043;DHT22;9146;48.074;11.968;2023-08-24T09:51:40;28.00;99.90
18043;DHT22;9146;48.074;11.968;2023-08-24T09:54:08;28.10;99.90
18043;DHT22;9146;48.074;11.968;2023-08-24T09:56:36;28.20;99.90
18043;DHT22;9146;48.074;11.968;2023-08-24T09:59:11;28.40;99.90
18043;DHT22;9146;48.074;11.968;2023-08-24T10:01:41;28.50;99.90
18043;DHT22;9146;48.074;11.968;2023-08-24T10:04:09;28.70;99.90
18043;DHT22;9146;48.074;11.968;2023-08-24T10:06:38;29.00;99.90
18043;DHT22;9146;48.074;11.968;2023-08-24T10:09:08;29.30;99.90
18043;DHT22;9146;48.074;11.968;2023-08-24T10:11:45;29.70;99.90
18043;DHT22;9146;48.074;11.968;2023-08-24T10:14:23;30.00;99.90
18043;DHT22;9146;48.074;11.968;2023-08-24T10:16:52;30.30;99.90
18043;DHT22;9146;48.074;11.968;2023-08-24T10:19:21;30.50;99.90
18043;DHT22;9146;48.074;11.968;2023-08-24T10:21:49;30.60;99.90
18043;DHT22;9146;48.074;11.968;2023-08-24T10:24:17;30.70;99.90
18043;DHT22;9146;48.074;11.968;2023-08-24T10:26:46;30.60;99.90
18043;DHT22;9146;48.074;11.968;2023-08-24T10:29:14;30.70;99.90
18043;DHT22;9146;48.074;11.968;2023-08-24T10:31:44;30.60;99.90
18043;DHT22;9146;48.074;11.968;2023-08-24T10:34:12;30.50;99.90
18043;DHT22;9146;48.074;11.968;2023-08-24T10:36:39;30.40;99.90
18043;DHT22;9146;48.074;11.968;2023-08-24T10:39:07;30.30;99.90
18043;DHT22;9146;48.074;11.968;2023-08-24T10:41:48;30.20;99.90
18043;DHT22;9146;48.074;11.968;2023-08-24T10:44:23;30.10;99.90
18043;DHT22;9146;48.074;11.968;2023-08-24T10:50:00;30.00;99.90
18043;DHT22;9146;48.074;11.968;2023-08-24T10:52:32;29.90;99.90
18043;DHT22;9146;48.074;11.968;2023-08-24T10:55:01;29.90;99.90
18043;DHT22;9146;48.074;11.968;2023-08-24T10:57:35;29.90;99.90
18043;DHT22;9146;48.074;11.968;2023-08-24T11:00:04;29.80;99.90
18043;DHT22;9146;48.074;11.968;2023-08-24T11:02:41;29.90;99.90
18043;DHT22;9146;48.074;11.968;2023-08-24T11:05:18;29.90;99.90
18043;DHT22;9146;48.074;11.968;2023-08-24T11:07:54;29.90;99.90
18043;DHT22;9146;48.074;11.968;2023-08-24T11:10:21;29.90;99.90
18043;DHT22;9146;48.074;11.968;2023-08-24T11:13:09;29.90;99.90
18043;DHT22;9146;48.074;11.968;2023-08-24T11:15:43;30.00;99.90
18043;DHT22;9146;48.074;11.968;2023-08-24T11:18:23;30.00;99.90
18043;DHT22;9146;48.074;11.968;2023-08-24T11:20:55;30.00;99.90
18043;DHT22;9146;48.074;11.968;2023-08-24T11:23:23;30.00;99.90
18043;DHT22;9146;48.074;11.968;2023-08-24T11:25:52;30.00;99.90
18043;DHT22;9146;48.074;11.968;2023-08-24T11:28:22;30.10;99.90
18043;DHT22;9146;48.074;11.968;2023-08-24T11:30:49;30.10;99.90
18043;DHT22;9146;48.074;11.968;2023-08-24T11:33:18;30.10;99.90
18043;DHT22;9146;48.074;11.968;2023-08-24T11:35:55;30.10;99.90
18043;DHT22;9146;48.074;11.968;2023-08-24T11:38:22;30.20;99.90
18043;DHT22;9146;48.074;11.968;2023-08-24T11:40:50;30.20;99.90
18043;DHT22;9146;48.074;11.968;2023-08-24T11:43:23;30.20;99.90
18043;DHT22;9146;48.074;11.968;2023-08-24T11:45:50;30.30;99.90
18043;DHT22;9146;48.074;11.968;2023-08-24T11:48:24;30.30;99.90
18043;DHT22;9146;48.074;11.968;2023-08-24T11:50:51;30.30;99.90
18043;DHT22;9146;48.074;11.968;2023-08-24T11:53:22;30.40;99.90
18043;DHT22;9146;48.074;11.968;2023-08-24T11:55:52;30.40;99.90
18043;DHT22;9146;48.074;11.968;2023-08-24T11:58:18;30.40;99.90
18043;DHT22;9146;48.074;11.968;2023-08-24T12:00:46;30.40;99.90
18043;DHT22;9146;48.074;11.968;2023-08-24T12:03:13;30.50;99.90
18043;DHT22;9146;48.074;11.968;2023-08-24T12:05:40;30.50;99.90
18043;DHT22;9146;48.074;11.968;2023-08-24T12:08:11;30.50;99.90
18043;DHT22;9146;48.074;11.968;2023-08-24T12:10:43;30.50;99.90
18043;DHT22;9146;48.074;11.968;2023-08-24T12:13:12;30.60;99.90
18043;DHT22;9146;48.074;11.968;2023-08-24T12:15:40;30.60;99.90
18043;DHT22;9146;48.074;11.968;2023-08-24T12:18:08;30.60;99.90
18043;DHT22;9146;48.074;11.968;2023-08-24T12:20:35;30.70;99.90
18043;DHT22;9146;48.074;11.968;2023-08-24T12:23:03;30.70;99.90
18043;DHT22;9146;48.074;11.968;2023-08-24T12:25:30;30.70;99.90
18043;DHT22;9146;48.074;11.968;2023-08-24T12:28:13;30.70;99.90
18043;DHT22;9146;48.074;11.968;2023-08-24T12:30:44;30.80;99.90
18043;DHT22;9146;48.074;11.968;2023-08-24T12:33:22;30.80;99.90
18043;DHT22;9146;48.074;11.968;2023-08-24T12:35:49;30.90;99.90
18043;DHT22;9146;48.074;11.968;2023-08-24T12:38:16;30.90;99.90
18043;DHT22;9146;48.074;11.968;2023-08-24T12:40:43;31.00;99.90
18043;DHT22;9146;48.074;11.968;2023-08-24T12:43:11;31.00;99.90
18043;DHT22;9146;48.074;11.968;2023-08-24T12:45:39;31.10;99.90
18043;DHT22;9146;48.074;11.968;2023-08-24T12:48:06;31.10;99.90
18043;DHT22;9146;48.074;11.968;2023-08-24T12:50:34;31.10;99.90
18043;DHT22;9146;48.074;11.968;2023-08-24T12:53:01;31.20;99.90
18043;DHT22;9146;48.074;11.968;2023-08-24T12:55:29;31.30;99.90
18043;DHT22;9146;48.074;11.968;2023-08-24T12:57:56;31.40;99.90
18043;DHT22;9146;48.074;11.968;2023-08-24T13:00:24;31.40;99.90
18043;DHT22;9146;48.074;11.968;2023-08-24T13:02:52;31.50;99.90
18043;DHT22;9146;48.074;11.968;2023-08-24T13:05:19;31.60;99.90
18043;DHT22;9146;48.074;11.968;2023-08-24T13:07:46;31.70;99.90
18043;DHT22;9146;48.074;11.968;2023-08-24T13:10:13;31.80;99.90
18043;DHT22;9146;48.074;11.968;2023-08-24T13:12:39;31.90;99.90
18043;DHT22;9146;48.074;11.968;2023-08-24T13:15:07;31.90;99.90
18043;DHT22;9146;48.074;11.968;2023-08-24T13:17:36;31.90;99.90
18043;DHT22;9146;48.074;11.968;2023-08-24T13:20:03;32.00;99.90
18043;DHT22;9146;48.074;11.968;2023-08-24T13:22:32;32.10;99.90
18043;DHT22;9146;48.074;11.968;2023-08-24T13:24:58;32.10;99.90
18043;DHT22;9146;48.074;11.968;2023-08-24T13:27:25;32.20;99.90
18043;DHT22;9146;48.074;11.968;2023-08-24T13:29:52;32.20;99.90
18043;DHT22;9146;48.074;11.968;2023-08-24T13:32:22;32.20;99.90
18043;DHT22;9146;48.074;11.968;2023-08-24T13:34:50;32.30;99.90
18043;DHT22;9146;48.074;11.968;2023-08-24T13:37:17;32.30;99.90
18043;DHT22;9146;48.074;11.968;2023-08-24T13:39:44;32.30;99.90
18043;DHT22;9146;48.074;11.968;2023-08-24T13:42:11;32.40;99.90
18043;DHT22;9146;48.074;11.968;2023-08-24T13:44:39;32.40;99.90
18043;DHT22;9146;48.074;11.968;2023-08-24T13:47:06;32.50;99.90
18043;DHT22;9146;48.074;11.968;2023-08-24T13:49:33;32.50;99.90
18043;DHT22;9146;48.074;11.968;2023-08-24T13:52:01;32.40;99.90
18043;DHT22;9146;48.074;11.968;2023-08-24T13:54:28;32.40;99.90
18043;DHT22;9146;48.074;11.968;2023-08-24T13:56:56;32.30;99.90
18043;DHT22;9146;48.074;11.968;2023-08-24T13:59:24;32.30;99.90
18043;DHT22;9146;48.074;11.968;2023-08-24T14:01:51;32.20;99.90
18043;DHT22;9146;48.074;11.968;2023-08-24T14:04:18;32.30;99.90
18043;DHT22;9146;48.074;11.968;2023-08-24T14:06:45;32.40;99.90
18043;DHT22;9146;48.074;11.968;2023-08-24T14:09:15;32.50;99.90
18043;DHT22;9146;48.074;11.968;2023-08-24T14:11:42;32.50;99.90
18043;DHT22;9146;48.074;11.968;2023-08-24T14:14:09;32.60;99.90
18043;DHT22;9146;48.074;11.968;2023-08-24T14:16:36;32.70;99.90
18043;DHT22;9146;48.074;11.968;2023-08-24T14:19:03;32.80;99.90
18043;DHT22;9146;48.074;11.968;2023-08-24T14:21:30;32.80;99.90
18043;DHT22;9146;48.074;11.968;2023-08-24T14:23:57;32.80;99.90
18043;DHT22;9146;48.074;11.968;2023-08-24T14:26:26;32.70;99.90
18043;DHT22;9146;48.074;11.968;2023-08-24T14:28:54;32.80;99.90
18043;DHT22;9146;48.074;11.968;2023-08-24T14:31:23;32.90;99.90
18043;DHT22;9146;48.074;11.968;2023-08-24T14:33:51;33.00;99.90
18043;DHT22;9146;48.074;11.968;2023-08-24T14:36:18;32.90;99.90
18043;DHT22;9146;48.074;11.968;2023-08-24T14:38:46;32.80;99.90
18043;DHT22;9146;48.074;11.968;2023-08-24T14:41:14;32.70;99.90
18043;DHT22;9146;48.074;11.968;2023-08-24T14:43:42;32.70;99.90
18043;DHT22;9146;48.074;11.968;2023-08-24T14:46:09;32.60;99.90
18043;DHT22;9146;48.074;11.968;2023-08-24T14:48:36;32.40;99.90
18043;DHT22;9146;48.074;11.968;2023-08-24T14:51:03;32.30;99.90
18043;DHT22;9146;48.074;11.968;2023-08-24T14:53:30;32.30;99.90
18043;DHT22;9146;48.074;11.968;2023-08-24T14:55:58;32.30;99.90
18043;DHT22;9146;48.074;11.968;2023-08-24T14:58:26;32.30;99.90
18043;DHT22;9146;48.074;11.968;2023-08-24T15:00:57;32.30;99.90
18043;DHT22;9146;48.074;11.968;2023-08-24T15:03:25;32.40;99.90
18043;DHT22;9146;48.074;11.968;2023-08-24T15:05:58;32.40;99.90
18043;DHT22;9146;48.074;11.968;2023-08-24T15:08:26;32.50;99.90
18043;DHT22;9146;48.074;11.968;2023-08-24T15:10:55;32.60;98.90
18043;DHT22;9146;48.074;11.968;2023-08-24T15:13:23;32.60;98.70
18043;DHT22;9146;48.074;11.968;2023-08-24T15:15:50;32.70;98.60
18043;DHT22;9146;48.074;11.968;2023-08-24T15:18:18;32.70;98.50
18043;DHT22;9146;48.074;11.968;2023-08-24T15:20:45;32.80;98.10
18043;DHT22;9146;48.074;11.968;2023-08-24T15:23:23;32.80;97.60
18043;DHT22;9146;48.074;11.968;2023-08-24T15:25:50;32.90;97.50
18043;DHT22;9146;48.074;11.968;2023-08-24T15:28:17;33.00;97.60
18043;DHT22;9146;48.074;11.968;2023-08-24T15:30:44;33.10;97.90
18043;DHT22;9146;48.074;11.968;2023-08-24T15:33:11;33.00;98.00
18043;DHT22;9146;48.074;11.968;2023-08-24T15:35:41;33.00;97.30
18043;DHT22;9146;48.074;11.968;2023-08-24T15:38:08;33.00;97.40
18043;DHT22;9146;48.074;11.968;2023-08-24T15:40:35;33.00;97.40